createdAt,value
2022-12-06T00:01:09.458Z,7.67
2022-12-06T00:03:37.325Z,7.69
2022-12-06T00:06:06.777Z,7.74
2022-12-06T00:08:34.076Z,7.73
2022-12-06T00:11:09.938Z,7.77
2022-12-06T00:13:37.860Z,7.79
2022-12-06T00:16:07.834Z,7.77
2022-12-06T00:18:36.333Z,7.77
2022-12-06T00:21:14.953Z,7.72
2022-12-06T00:23:48.428Z,7.60
2022-12-06T00:26:15.553Z,7.58
2022-12-06T00:28:42.989Z,7.56
2022-12-06T00:31:13.534Z,7.59
2022-12-06T00:33:40.337Z,7.56
2022-12-06T00:36:11.251Z,7.69
2022-12-06T00:38:38.192Z,7.67
2022-12-06T00:41:10.715Z,7.70
2022-12-06T00:43:38.245Z,7.68
2022-12-06T00:46:07.846Z,7.68
2022-12-06T00:48:35.351Z,7.72
2022-12-06T00:51:02.372Z,7.74
2022-12-06T00:53:29.442Z,7.78
2022-12-06T00:55:56.468Z,7.77
2022-12-06T00:58:23.957Z,7.75
2022-12-06T01:00:51.275Z,7.75
2022-12-06T01:03:18.775Z,7.73
2022-12-06T01:05:48.016Z,7.73
2022-12-06T01:08:16.460Z,7.71
2022-12-06T01:10:52.165Z,7.65
2022-12-06T01:13:19.277Z,7.66
2022-12-06T01:15:46.333Z,7.56
2022-12-06T01:18:13.366Z,7.52
2022-12-06T01:20:40.136Z,7.45
2022-12-06T01:23:06.925Z,7.43
2022-12-06T01:25:36.175Z,7.38
2022-12-06T01:28:04.240Z,7.40
2022-12-06T01:30:31.458Z,7.40
2022-12-06T01:32:58.363Z,7.38
2022-12-06T01:35:25.145Z,7.44
2022-12-06T01:37:51.981Z,7.43
2022-12-06T01:40:18.841Z,7.53
2022-12-06T01:42:45.664Z,7.61
2022-12-06T01:45:12.553Z,7.53
2022-12-06T01:47:42.703Z,7.55
2022-12-06T01:50:19.988Z,7.55
2022-12-06T01:52:46.769Z,7.61
2022-12-06T01:55:14.804Z,7.65
2022-12-06T01:57:41.855Z,7.51
2022-12-06T02:00:09.238Z,7.55
2022-12-06T02:02:39.018Z,7.42
2022-12-06T02:05:07.933Z,7.40
2022-12-06T02:07:35.430Z,7.40
2022-12-06T02:10:03.428Z,7.47
2022-12-06T02:12:30.223Z,7.56
2022-12-06T02:14:57.160Z,7.60
2022-12-06T02:17:47.644Z,7.59
2022-12-06T02:20:20.317Z,7.45
2022-12-06T02:23:06.043Z,7.52
2022-12-06T02:26:00.515Z,7.53
2022-12-06T02:28:30.182Z,7.39
2022-12-06T02:31:05.091Z,7.34
2022-12-06T02:33:50.450Z,7.45
2022-12-06T02:36:24.937Z,7.58
2022-12-06T02:39:13.860Z,7.61
2022-12-06T02:41:53.461Z,7.68
2022-12-06T02:44:26.868Z,7.64
2022-12-06T02:46:56.499Z,7.48
2022-12-06T02:49:27.990Z,7.48
2022-12-06T02:51:56.798Z,7.59
2022-12-06T02:54:25.608Z,7.55
2022-12-06T02:56:52.861Z,7.46
2022-12-06T02:59:19.755Z,7.48
2022-12-06T03:01:52.539Z,7.45
2022-12-06T03:04:35.088Z,7.43
2022-12-06T03:07:10.974Z,7.53
2022-12-06T03:10:03.236Z,7.56
2022-12-06T03:12:45.922Z,7.57
2022-12-06T03:15:46.304Z,7.54
2022-12-06T03:18:22.174Z,7.58
2022-12-06T03:20:55.920Z,7.59
2022-12-06T03:23:31.761Z,7.60
2022-12-06T03:26:01.018Z,7.61
2022-12-06T03:28:30.151Z,7.56
2022-12-06T03:31:02.253Z,7.56
2022-12-06T03:33:32.664Z,7.57
2022-12-06T03:36:00.204Z,7.60
2022-12-06T03:38:35.776Z,7.61
2022-12-06T03:41:06.247Z,7.61
2022-12-06T03:43:34.256Z,7.58
2022-12-06T03:46:10.795Z,7.68
2022-12-06T03:49:04.810Z,7.65
2022-12-06T03:51:34.822Z,7.64
2022-12-06T03:54:04.773Z,7.57
2022-12-06T03:56:32.662Z,7.56
2022-12-06T03:58:59.504Z,7.54
2022-12-06T04:01:26.438Z,7.50
2022-12-06T04:03:53.317Z,7.57
2022-12-06T04:06:20.174Z,7.55
2022-12-06T04:08:47.144Z,7.56
2022-12-06T04:11:14.029Z,7.57
2022-12-06T04:13:41.608Z,7.61
2022-12-06T04:16:29.237Z,7.57
2022-12-06T04:18:56.386Z,7.56
2022-12-06T04:21:32.203Z,7.55
2022-12-06T04:24:00.073Z,7.56
2022-12-06T04:26:27.146Z,7.60
2022-12-06T04:29:13.051Z,7.62
2022-12-06T04:31:59.443Z,7.70
2022-12-06T04:34:44.913Z,7.69
2022-12-06T04:37:30.497Z,7.62
2022-12-06T04:39:57.493Z,7.65
2022-12-06T04:42:43.432Z,7.53
2022-12-06T04:45:10.678Z,7.63
2022-12-06T04:47:37.469Z,7.68
2022-12-06T04:50:04.874Z,7.71
2022-12-06T04:52:35.683Z,7.71
2022-12-06T04:55:05.025Z,7.58
2022-12-06T04:57:31.884Z,7.63
2022-12-06T04:59:59.049Z,7.59
2022-12-06T05:02:26.142Z,7.64
2022-12-06T05:04:52.949Z,7.67
2022-12-06T05:07:19.888Z,7.63
2022-12-06T05:09:46.693Z,7.66
2022-12-06T05:12:13.606Z,7.71
2022-12-06T05:14:40.466Z,7.72
2022-12-06T05:17:07.392Z,7.77
2022-12-06T05:19:34.284Z,7.76
2022-12-06T05:22:01.072Z,7.75
2022-12-06T05:24:27.945Z,7.75
2022-12-06T05:26:54.832Z,7.70
2022-12-06T05:29:21.692Z,7.68
2022-12-06T05:31:48.659Z,7.67
2022-12-06T05:34:15.589Z,7.68
2022-12-06T05:36:44.918Z,7.61
2022-12-06T05:39:11.947Z,7.67
2022-12-06T05:41:38.766Z,7.72
2022-12-06T05:44:05.748Z,7.76
2022-12-06T05:46:32.590Z,7.67
2022-12-06T05:48:59.421Z,7.67
2022-12-06T05:51:26.287Z,7.69
2022-12-06T05:53:53.157Z,7.66
2022-12-06T05:56:20.079Z,7.71
2022-12-06T05:58:46.891Z,7.72
2022-12-06T06:01:13.831Z,7.73
2022-12-06T06:03:46.960Z,7.74
2022-12-06T06:06:14.632Z,7.76
2022-12-06T06:08:41.513Z,7.77
2022-12-06T06:11:08.596Z,7.79
2022-12-06T06:13:35.419Z,7.81
2022-12-06T06:16:02.332Z,7.86
2022-12-06T06:18:29.339Z,7.87
2022-12-06T06:20:59.254Z,7.94
2022-12-06T06:23:27.788Z,7.87
2022-12-06T06:25:54.947Z,7.82
2022-12-06T06:28:21.879Z,7.92
2022-12-06T06:30:48.797Z,7.92
2022-12-06T06:33:16.182Z,7.87
2022-12-06T06:35:43.458Z,7.88
2022-12-06T06:38:10.296Z,7.86
2022-12-06T06:40:37.201Z,7.94
2022-12-06T06:43:18.452Z,7.95
2022-12-06T06:45:46.641Z,7.93
2022-12-06T06:48:13.564Z,7.94
2022-12-06T06:50:40.507Z,7.92
2022-12-06T06:53:07.388Z,7.77
2022-12-06T06:55:36.238Z,7.83
2022-12-06T06:58:04.097Z,7.91
2022-12-06T07:00:31.084Z,7.97
2022-12-06T07:02:58.134Z,7.93
2022-12-06T07:05:25.960Z,7.90
2022-12-06T07:07:53.098Z,7.80
2022-12-06T07:10:20.009Z,7.87
2022-12-06T07:12:46.960Z,7.92
2022-12-06T07:15:13.814Z,7.95
2022-12-06T07:17:40.657Z,7.95
2022-12-06T07:20:08.102Z,7.99
2022-12-06T07:22:34.867Z,8.32
2022-12-06T07:25:01.667Z,8.21
2022-12-06T07:27:28.555Z,8.09
2022-12-06T07:29:55.391Z,7.97
2022-12-06T07:32:22.207Z,7.99
2022-12-06T07:34:49.096Z,7.99
2022-12-06T07:37:19.052Z,8.04
2022-12-06T07:39:45.942Z,8.08
2022-12-06T07:42:31.588Z,8.04
2022-12-06T07:45:02.623Z,7.99
2022-12-06T07:47:38.501Z,7.99
2022-12-06T07:50:10.535Z,8.10
2022-12-06T07:52:41.895Z,8.14
2022-12-06T07:55:10.617Z,8.21
2022-12-06T07:57:43.153Z,8.28
2022-12-06T08:00:14.364Z,8.26
2022-12-06T08:02:41.877Z,8.37
2022-12-06T08:05:09.429Z,8.35
2022-12-06T08:07:36.491Z,8.39
2022-12-06T08:10:04.583Z,8.41
2022-12-06T08:12:32.411Z,8.47
2022-12-06T08:15:00.130Z,8.51
2022-12-06T08:17:27.733Z,8.53
2022-12-06T08:19:54.687Z,8.52
2022-12-06T08:22:21.574Z,8.56
2022-12-06T08:24:48.484Z,8.54
2022-12-06T08:27:15.494Z,8.51
2022-12-06T08:29:45.266Z,8.46
2022-12-06T08:32:12.324Z,8.38
2022-12-06T08:34:39.179Z,8.66
2022-12-06T08:37:06.115Z,8.71
2022-12-06T08:39:32.956Z,8.80
2022-12-06T08:41:59.835Z,8.75
2022-12-06T08:44:28.694Z,8.65
2022-12-06T08:46:56.721Z,8.64
2022-12-06T08:49:25.529Z,8.68
2022-12-06T08:51:53.186Z,8.70
2022-12-06T08:54:23.138Z,8.73
2022-12-06T08:56:51.326Z,8.76
2022-12-06T08:59:19.210Z,8.74
2022-12-06T09:01:47.154Z,8.76
2022-12-06T09:04:14.969Z,8.76
2022-12-06T09:06:43.811Z,8.80
2022-12-06T09:09:12.342Z,8.76
2022-12-06T09:11:40.477Z,8.78
2022-12-06T09:14:09.394Z,8.82
2022-12-06T09:16:36.971Z,8.68
2022-12-06T09:19:04.144Z,8.66
2022-12-06T09:21:31.857Z,8.69
2022-12-06T09:23:59.260Z,8.67
2022-12-06T09:26:26.989Z,8.69
2022-12-06T09:28:55.707Z,8.65
2022-12-06T09:31:23.844Z,8.63
2022-12-06T09:33:51.802Z,8.57
2022-12-06T09:36:24.104Z,8.61
2022-12-06T09:39:08.163Z,8.50
2022-12-06T09:42:02.890Z,8.66
2022-12-06T09:44:39.666Z,8.83
2022-12-06T09:47:15.618Z,8.90
2022-12-06T09:50:03.781Z,8.71
2022-12-06T09:52:45.728Z,8.72
2022-12-06T09:55:24.306Z,8.69
2022-12-06T09:58:10.460Z,8.75
2022-12-06T10:00:56.745Z,8.66
2022-12-06T10:03:58.908Z,8.69
2022-12-06T10:06:35.490Z,8.67
2022-12-06T10:09:05.299Z,8.73
2022-12-06T10:11:59.949Z,8.76
2022-12-06T10:15:08.376Z,8.96
2022-12-06T10:18:08.736Z,8.93
2022-12-06T10:20:45.716Z,9.05
2022-12-06T10:23:40.023Z,8.98
2022-12-06T10:26:51.329Z,9.14
2022-12-06T10:29:30.233Z,9.18
2022-12-06T10:32:10.930Z,9.22
2022-12-06T10:34:58.488Z,9.27
2022-12-06T10:37:28.196Z,9.23
2022-12-06T10:40:01.794Z,9.22
2022-12-06T10:42:28.906Z,9.27
2022-12-06T10:45:34.140Z,9.33
2022-12-06T10:48:07.578Z,9.25
2022-12-06T10:50:36.758Z,9.39
2022-12-06T10:53:17.306Z,9.35
2022-12-06T10:55:54.656Z,9.38
2022-12-06T10:58:36.299Z,9.46
2022-12-06T11:01:17.173Z,9.30
2022-12-06T11:03:53.657Z,9.24
2022-12-06T11:06:26.635Z,9.20
2022-12-06T11:08:58.254Z,9.33
2022-12-06T11:11:31.566Z,9.24
2022-12-06T11:14:20.403Z,9.29
2022-12-06T11:17:13.324Z,9.28
2022-12-06T11:19:48.723Z,9.26
2022-12-06T11:22:15.471Z,9.31
2022-12-06T11:25:14.565Z,9.27
2022-12-06T11:27:49.523Z,9.22
2022-12-06T11:30:20.575Z,9.17
2022-12-06T11:32:51.316Z,9.17
2022-12-06T11:35:25.407Z,9.13
2022-12-06T11:37:58.110Z,9.14
2022-12-06T11:40:32.482Z,9.16
2022-12-06T11:43:02.690Z,9.06
2022-12-06T11:45:33.780Z,9.13
2022-12-06T11:48:07.809Z,9.11
2022-12-06T11:50:36.677Z,9.09
2022-12-06T11:53:28.481Z,9.03
2022-12-06T11:56:01.036Z,9.04
2022-12-06T11:58:43.979Z,9.02
2022-12-06T12:01:14.588Z,9.09
2022-12-06T12:03:44.205Z,9.11
2022-12-06T12:06:22.041Z,9.07
2022-12-06T12:08:59.863Z,9.08
2022-12-06T12:11:37.467Z,9.05
2022-12-06T12:14:35.490Z,9.08
2022-12-06T12:17:03.930Z,9.08
2022-12-06T12:19:36.823Z,9.09
2022-12-06T12:22:28.015Z,9.05
2022-12-06T12:27:47.158Z,9.03
2022-12-06T12:30:27.677Z,9.09
2022-12-06T12:33:06.731Z,9.09
2022-12-06T12:35:42.452Z,9.10
2022-12-06T12:38:25.969Z,9.08
2022-12-06T12:41:18.112Z,9.13
2022-12-06T12:44:13.533Z,9.08
2022-12-06T12:46:45.026Z,9.12
2022-12-06T12:49:21.759Z,9.16
2022-12-06T12:51:48.781Z,9.15
2022-12-06T12:54:39.265Z,9.21
2022-12-06T12:57:12.703Z,9.20
2022-12-06T12:59:41.069Z,9.19
2022-12-06T13:02:28.994Z,9.19
2022-12-06T13:05:33.426Z,9.17
2022-12-06T13:08:15.829Z,9.25
2022-12-06T13:10:47.142Z,9.22
2022-12-06T13:13:20.673Z,9.24
2022-12-06T13:15:56.590Z,9.28
2022-12-06T13:18:27.019Z,9.32
2022-12-06T13:20:56.918Z,9.27
2022-12-06T13:23:27.699Z,9.18
2022-12-06T13:26:14.975Z,9.22
2022-12-06T13:28:47.426Z,9.28
2022-12-06T13:31:19.968Z,9.30
2022-12-06T13:33:59.049Z,9.24
2022-12-06T13:36:31.255Z,9.25
2022-12-06T13:38:58.221Z,9.27
2022-12-06T13:41:54.266Z,9.26
2022-12-06T13:44:40.786Z,9.16
2022-12-06T13:47:26.531Z,9.08
2022-12-06T13:49:59.861Z,9.12
2022-12-06T13:52:45.416Z,9.11
2022-12-06T13:55:38.629Z,9.13
2022-12-06T13:58:05.617Z,9.18
2022-12-06T14:00:34.057Z,9.10
2022-12-06T14:03:16.278Z,9.16
2022-12-06T14:06:14.384Z,9.17
2022-12-06T14:08:52.283Z,9.19
2022-12-06T14:11:21.782Z,9.10
2022-12-06T14:14:00.759Z,9.03
2022-12-06T14:16:39.807Z,9.11
2022-12-06T14:19:15.293Z,9.14
2022-12-06T14:21:51.193Z,9.02
2022-12-06T14:24:34.040Z,8.96
2022-12-06T14:27:18.619Z,8.90
2022-12-06T14:30:04.704Z,8.90
2022-12-06T14:32:40.010Z,8.85
2022-12-06T14:35:13.279Z,8.92
2022-12-06T14:37:47.131Z,8.90
2022-12-06T14:40:45.763Z,8.87
2022-12-06T14:43:18.094Z,8.82
2022-12-06T14:45:46.561Z,8.81
2022-12-06T14:48:13.743Z,8.83
2022-12-06T14:50:45.467Z,8.88
2022-12-06T14:53:15.228Z,8.89
2022-12-06T14:55:55.492Z,8.89
2022-12-06T14:58:26.213Z,8.90
2022-12-06T15:01:02.948Z,8.89
2022-12-06T15:03:37.641Z,8.93
2022-12-06T15:06:13.501Z,8.95
2022-12-06T15:08:48.121Z,8.90
2022-12-06T15:11:38.656Z,8.94
2022-12-06T15:14:22.116Z,8.83
2022-12-06T15:17:02.984Z,8.82
2022-12-06T15:19:31.926Z,8.87
2022-12-06T15:21:58.923Z,8.91
2022-12-06T15:24:27.662Z,8.83
2022-12-06T15:26:55.100Z,8.88
2022-12-06T15:29:22.440Z,8.81
2022-12-06T15:31:54.447Z,8.76
2022-12-06T15:34:32.742Z,8.82
2022-12-06T15:37:30.143Z,8.78
2022-12-06T15:39:48.474Z,8.68
2022-12-06T15:42:21.860Z,8.72
2022-12-06T15:44:50.281Z,8.65
2022-12-06T15:47:19.788Z,8.63
2022-12-06T15:49:48.996Z,8.67
2022-12-06T15:52:17.724Z,8.57
2022-12-06T15:54:45.142Z,8.57
2022-12-06T15:57:11.969Z,8.60
2022-12-06T15:59:38.818Z,8.66
2022-12-06T16:02:15.414Z,8.66
2022-12-06T16:04:43.218Z,8.75
2022-12-06T16:07:10.798Z,8.90
2022-12-06T16:09:38.259Z,8.94
2022-12-06T16:12:05.612Z,8.77
2022-12-06T16:14:32.677Z,8.82
2022-12-06T16:16:59.543Z,8.79
2022-12-06T16:19:46.310Z,8.78
2022-12-06T16:22:13.221Z,8.81
2022-12-06T16:24:39.998Z,8.80
2022-12-06T16:27:06.804Z,8.85
2022-12-06T16:29:33.751Z,8.77
2022-12-06T16:32:00.745Z,8.75
2022-12-06T16:34:29.455Z,8.64
2022-12-06T16:37:00.668Z,8.63
2022-12-06T16:39:30.061Z,8.66
2022-12-06T16:41:57.063Z,8.53
2022-12-06T16:44:24.262Z,8.48
2022-12-06T16:46:52.016Z,8.52
2022-12-06T16:52:08.635Z,8.52
2022-12-06T16:54:39.003Z,8.49
2022-12-06T16:57:05.903Z,8.49
2022-12-06T16:59:32.751Z,8.49
2022-12-06T17:01:59.620Z,8.63
2022-12-06T17:04:26.896Z,8.51
2022-12-06T17:06:53.886Z,8.50
2022-12-06T17:09:20.673Z,8.52
2022-12-06T17:12:02.756Z,8.52
2022-12-06T17:14:30.363Z,8.43
2022-12-06T17:17:00.345Z,8.48
2022-12-06T17:19:28.422Z,8.51
2022-12-06T17:21:55.465Z,8.51
2022-12-06T17:24:25.043Z,8.59
2022-12-06T17:26:54.236Z,8.58
2022-12-06T17:29:23.463Z,8.60
2022-12-06T17:31:51.210Z,8.59
2022-12-06T17:34:19.459Z,8.60
2022-12-06T17:36:47.547Z,8.54
2022-12-06T17:39:17.603Z,8.54
2022-12-06T17:42:03.542Z,8.57
2022-12-06T17:44:30.664Z,8.60
2022-12-06T17:46:57.567Z,8.52
2022-12-06T17:49:26.672Z,8.56
2022-12-06T17:51:54.211Z,8.53
2022-12-06T17:54:22.911Z,8.57
2022-12-06T17:56:51.828Z,8.58
2022-12-06T17:59:21.044Z,8.61
2022-12-06T18:04:35.920Z,8.61
2022-12-06T18:07:03.042Z,8.64
2022-12-06T18:09:29.943Z,8.64
2022-12-06T18:11:56.911Z,8.67
2022-12-06T18:14:23.719Z,8.63
2022-12-06T18:16:50.707Z,8.69
2022-12-06T18:19:22.859Z,8.66
2022-12-06T18:21:52.392Z,8.70
2022-12-06T18:24:23.304Z,8.66
2022-12-06T18:26:52.496Z,8.65
2022-12-06T18:29:21.678Z,8.61
2022-12-06T18:31:49.413Z,8.61
2022-12-06T18:34:16.651Z,8.58
2022-12-06T18:36:43.593Z,8.61
2022-12-06T18:39:16.689Z,8.59
2022-12-06T18:41:44.743Z,8.58
2022-12-06T18:44:12.875Z,8.64
2022-12-06T18:46:42.770Z,8.66
2022-12-06T18:49:11.803Z,8.63
2022-12-06T18:51:39.052Z,8.60
2022-12-06T18:54:06.998Z,8.67
2022-12-06T18:56:35.289Z,8.60
2022-12-06T18:59:04.868Z,8.58
2022-12-06T19:01:34.864Z,8.53
2022-12-06T19:04:03.630Z,8.56
2022-12-06T19:06:32.958Z,8.57
2022-12-06T19:09:02.080Z,8.53
2022-12-06T19:11:29.043Z,8.61
2022-12-06T19:14:00.453Z,8.65
2022-12-06T19:16:35.235Z,8.61
2022-12-06T19:19:03.822Z,8.60
2022-12-06T19:21:35.211Z,8.61
2022-12-06T19:24:02.644Z,8.63
2022-12-06T19:26:29.991Z,8.57
2022-12-06T19:28:57.363Z,8.59
2022-12-06T19:31:24.344Z,8.58
2022-12-06T19:33:52.501Z,8.62
2022-12-06T19:36:24.842Z,8.60
2022-12-06T19:38:59.347Z,8.61
2022-12-06T19:41:26.763Z,8.59
2022-12-06T19:44:12.714Z,8.53
2022-12-06T19:46:43.030Z,8.54
2022-12-06T19:49:11.559Z,8.45
2022-12-06T19:51:40.203Z,8.44
2022-12-06T19:54:07.849Z,8.45
2022-12-06T19:56:35.573Z,8.49
2022-12-06T19:59:11.469Z,8.48
2022-12-06T20:01:41.212Z,8.44
2022-12-06T20:04:08.672Z,8.42
2022-12-06T20:06:36.658Z,8.36
2022-12-06T20:09:04.196Z,8.28
2022-12-06T20:11:49.643Z,8.31
2022-12-06T20:14:18.609Z,8.34
2022-12-06T20:16:45.832Z,8.32
2022-12-06T20:19:17.556Z,8.31
2022-12-06T20:21:45.565Z,8.30
2022-12-06T20:24:15.174Z,8.26
2022-12-06T20:26:42.139Z,8.29
2022-12-06T20:29:09.988Z,8.27
2022-12-06T20:31:37.189Z,8.27
2022-12-06T20:34:11.573Z,8.31
2022-12-06T20:36:42.832Z,8.40
2022-12-06T20:39:20.966Z,8.39
2022-12-06T20:41:48.836Z,8.30
2022-12-06T20:44:16.626Z,8.31
2022-12-06T20:46:43.563Z,8.34
2022-12-06T20:49:10.574Z,8.31
2022-12-06T20:51:37.743Z,8.36
2022-12-06T20:54:07.225Z,8.47
2022-12-06T20:56:39.427Z,8.46
2022-12-06T20:59:07.943Z,8.40
2022-12-06T21:01:38.790Z,8.50
2022-12-06T21:04:06.152Z,8.47
2022-12-06T21:06:33.025Z,8.44
2022-12-06T21:08:59.930Z,8.48
2022-12-06T21:11:26.928Z,8.56
2022-12-06T21:13:55.323Z,8.46
2022-12-06T21:16:27.502Z,8.51
2022-12-06T21:19:00.945Z,8.53
2022-12-06T21:21:37.032Z,8.48
2022-12-06T21:24:06.754Z,8.48
2022-12-06T21:26:34.632Z,8.43
2022-12-06T21:29:02.022Z,8.45
2022-12-06T21:31:34.304Z,8.38
2022-12-06T21:34:01.876Z,8.42
2022-12-06T21:36:28.698Z,8.43
2022-12-06T21:38:55.864Z,8.43
2022-12-06T21:41:23.041Z,8.43
2022-12-06T21:43:49.984Z,8.53
2022-12-06T21:46:20.503Z,8.47
2022-12-06T21:48:52.364Z,8.51
2022-12-06T21:51:20.335Z,8.48
2022-12-06T21:53:48.002Z,8.47
2022-12-06T21:56:20.447Z,8.48
2022-12-06T21:58:48.583Z,8.49
2022-12-06T22:01:18.644Z,8.58
2022-12-06T22:03:50.028Z,8.54
2022-12-06T22:06:17.723Z,8.56
2022-12-06T22:08:46.151Z,8.55
2022-12-06T22:11:19.348Z,8.50
2022-12-06T22:13:48.038Z,8.48
2022-12-06T22:16:16.194Z,8.51
2022-12-06T22:18:45.863Z,8.49
2022-12-06T22:21:19.419Z,8.49
2022-12-06T22:23:46.999Z,8.49
2022-12-06T22:26:16.880Z,8.51
2022-12-06T22:28:43.880Z,8.49
2022-12-06T22:31:14.899Z,8.48
2022-12-06T22:33:42.303Z,8.45
2022-12-06T22:36:10.188Z,8.44
2022-12-06T22:38:37.386Z,8.38
2022-12-06T22:41:05.409Z,8.41
2022-12-06T22:43:33.169Z,8.33
2022-12-06T22:46:05.486Z,8.31
2022-12-06T22:48:32.505Z,8.34
2022-12-06T22:51:21.009Z,8.29
2022-12-06T22:53:56.401Z,8.24
2022-12-06T22:56:24.082Z,8.17
2022-12-06T22:58:59.190Z,8.20
2022-12-06T23:01:28.636Z,8.16
2022-12-06T23:03:56.449Z,8.14
2022-12-06T23:06:25.848Z,8.24
2022-12-06T23:08:53.767Z,8.25
2022-12-06T23:11:23.730Z,8.26
2022-12-06T23:13:50.900Z,8.29
2022-12-06T23:16:20.699Z,8.34
2022-12-06T23:18:49.479Z,8.35
2022-12-06T23:21:21.738Z,8.32
2022-12-06T23:23:50.922Z,8.41
2022-12-06T23:26:23.022Z,8.43
2022-12-06T23:28:50.074Z,8.39
2022-12-06T23:31:20.033Z,8.33
2022-12-06T23:33:48.361Z,8.35
2022-12-06T23:36:20.634Z,8.30
2022-12-06T23:38:47.901Z,8.21
2022-12-06T23:41:20.694Z,8.26
2022-12-06T23:43:47.890Z,8.21
2022-12-06T23:46:21.969Z,8.30
2022-12-06T23:48:50.148Z,8.31
2022-12-06T23:51:19.799Z,8.34
2022-12-06T23:53:51.443Z,8.36
2022-12-06T23:56:20.651Z,8.37
2022-12-06T23:58:48.156Z,8.35
